createdAt,value
2023-06-21T00:00:00.683Z,3.75
2023-06-21T00:02:29.927Z,3.78
2023-06-21T00:04:59.576Z,3.85
2023-06-21T00:07:26.379Z,3.90
2023-06-21T00:09:53.657Z,3.92
2023-06-21T00:12:21.483Z,3.50
2023-06-21T00:14:48.287Z,3.78
2023-06-21T00:17:15.059Z,4.00
2023-06-21T00:19:41.817Z,4.32
2023-06-21T00:22:08.741Z,3.55
2023-06-21T00:24:35.655Z,4.97
2023-06-21T00:27:02.624Z,3.63
2023-06-21T00:29:29.716Z,3.65
2023-06-21T00:31:56.496Z,3.47
2023-06-21T00:34:23.309Z,3.45
2023-06-21T00:36:50.074Z,3.67
2023-06-21T00:39:17.460Z,3.90
2023-06-21T00:41:44.356Z,3.72
2023-06-21T00:44:11.285Z,4.57
2023-06-21T00:46:38.322Z,4.30
2023-06-21T00:49:05.633Z,4.22
2023-06-21T00:51:34.237Z,4.72
2023-06-21T00:54:01.461Z,3.95
2023-06-21T00:56:28.324Z,4.65
2023-06-21T00:58:57.003Z,3.75
2023-06-21T01:01:24.062Z,4.00
2023-06-21T01:03:51.053Z,4.88
2023-06-21T01:06:39.119Z,3.83
2023-06-21T01:09:42.251Z,4.10
2023-06-21T01:12:24.267Z,3.85
2023-06-21T01:14:53.855Z,4.15
2023-06-21T01:17:21.727Z,3.58
2023-06-21T01:19:57.214Z,4.00
2023-06-21T01:22:25.629Z,4.60
2023-06-21T01:25:29.346Z,4.03
2023-06-21T01:28:34.605Z,4.53
2023-06-21T01:31:02.747Z,4.45
2023-06-21T01:33:30.500Z,4.10
2023-06-21T01:35:57.471Z,4.15
2023-06-21T01:38:25.702Z,4.03
2023-06-21T01:40:52.501Z,4.07
2023-06-21T01:43:20.097Z,4.75
2023-06-21T01:45:47.710Z,4.43
2023-06-21T01:48:15.618Z,4.15
2023-06-21T01:50:43.785Z,4.97
2023-06-21T01:53:15.204Z,3.75
2023-06-21T01:55:45.798Z,4.20
2023-06-21T01:58:14.014Z,4.10
2023-06-21T02:00:42.040Z,4.45
2023-06-21T02:03:11.306Z,4.28
2023-06-21T02:05:38.988Z,3.70
2023-06-21T02:08:06.740Z,4.38
2023-06-21T02:10:33.699Z,4.13
2023-06-21T02:13:00.507Z,4.70
2023-06-21T02:15:27.344Z,3.67
2023-06-21T02:17:54.129Z,4.45
2023-06-21T02:20:23.752Z,4.18
2023-06-21T02:22:51.077Z,4.43
2023-06-21T02:25:18.023Z,4.57
2023-06-21T02:27:45.193Z,4.90
2023-06-21T02:30:12.297Z,4.50
2023-06-21T02:32:39.448Z,4.68
2023-06-21T02:35:07.233Z,5.10
2023-06-21T02:37:34.087Z,4.55
2023-06-21T02:40:06.957Z,4.53
2023-06-21T02:42:33.773Z,4.53
2023-06-21T02:45:00.629Z,4.95
2023-06-21T02:47:27.429Z,5.18
2023-06-21T02:49:54.249Z,4.10
2023-06-21T02:52:21.023Z,3.55
2023-06-21T02:54:47.797Z,4.30
2023-06-21T02:57:14.666Z,4.95
2023-06-21T02:59:41.455Z,4.45
2023-06-21T03:02:08.373Z,4.68
2023-06-21T03:04:35.165Z,4.47
2023-06-21T03:07:02.676Z,4.32
2023-06-21T03:09:30.086Z,4.90
2023-06-21T03:11:56.995Z,4.20
2023-06-21T03:14:23.808Z,5.45
2023-06-21T03:16:51.121Z,4.70
2023-06-21T03:19:19.412Z,4.68
2023-06-21T03:21:46.960Z,4.28
2023-06-21T03:24:13.942Z,4.20
2023-06-21T03:26:40.739Z,3.90
2023-06-21T03:29:08.086Z,4.55
2023-06-21T03:31:35.866Z,4.20
2023-06-21T03:34:02.732Z,4.05
2023-06-21T03:36:29.952Z,4.22
2023-06-21T03:38:57.153Z,4.50
2023-06-21T03:41:23.929Z,4.60
2023-06-21T03:43:51.146Z,4.38
2023-06-21T03:46:19.472Z,4.50
2023-06-21T03:48:46.313Z,4.78
2023-06-21T03:51:13.101Z,4.35
2023-06-21T03:53:39.905Z,4.50
2023-06-21T03:56:06.746Z,5.00
2023-06-21T03:58:33.493Z,4.63
2023-06-21T04:01:00.273Z,4.70
2023-06-21T04:03:27.707Z,4.90
2023-06-21T04:05:54.497Z,5.60
2023-06-21T04:08:21.252Z,4.78
2023-06-21T04:10:48.083Z,5.18
2023-06-21T04:13:14.966Z,5.07
2023-06-21T04:15:41.986Z,4.80
2023-06-21T04:18:08.854Z,4.63
2023-06-21T04:20:35.709Z,5.40
2023-06-21T04:23:02.581Z,5.80
2023-06-21T04:25:29.362Z,5.22
2023-06-21T04:27:56.203Z,5.90
2023-06-21T04:30:23.202Z,5.07
2023-06-21T04:32:50.099Z,5.87
2023-06-21T04:35:18.418Z,4.93
2023-06-21T04:37:46.886Z,5.10
2023-06-21T04:40:18.553Z,5.93
2023-06-21T04:42:47.433Z,6.03
2023-06-21T04:45:16.353Z,5.43
2023-06-21T04:47:49.457Z,5.47
2023-06-21T04:50:21.660Z,5.37
2023-06-21T04:52:51.128Z,5.00
2023-06-21T04:55:19.726Z,5.80
2023-06-21T04:57:50.028Z,4.87
2023-06-21T05:00:18.334Z,5.83
2023-06-21T05:02:45.483Z,5.97
2023-06-21T05:05:12.396Z,6.40
2023-06-21T05:07:40.363Z,6.20
2023-06-21T05:10:09.178Z,7.40
2023-06-21T05:12:39.354Z,6.87
2023-06-21T05:15:07.541Z,6.07
2023-06-21T05:17:35.837Z,6.70
2023-06-21T05:20:06.461Z,5.83
2023-06-21T05:22:33.398Z,6.37
2023-06-21T05:25:03.189Z,5.77
2023-06-21T05:27:30.730Z,6.70
2023-06-21T05:29:57.576Z,6.07
2023-06-21T05:32:27.250Z,6.63
2023-06-21T05:34:55.125Z,7.10
2023-06-21T05:37:23.545Z,7.70
2023-06-21T05:39:50.664Z,7.07
2023-06-21T05:42:17.532Z,7.23
2023-06-21T05:44:44.368Z,6.27
2023-06-21T05:47:11.170Z,6.63
2023-06-21T05:49:37.976Z,6.67
2023-06-21T05:52:05.060Z,6.20
2023-06-21T05:54:31.794Z,5.60
2023-06-21T05:56:58.604Z,5.73
2023-06-21T05:59:25.371Z,6.10
2023-06-21T06:01:52.189Z,6.00
2023-06-21T06:04:19.130Z,5.20
2023-06-21T06:06:46.139Z,6.57
2023-06-21T06:09:13.867Z,6.50
2023-06-21T06:11:40.612Z,6.87
2023-06-21T06:14:07.445Z,5.57
2023-06-21T06:16:34.246Z,6.47
2023-06-21T06:19:01.147Z,7.10
2023-06-21T06:21:27.951Z,5.97
2023-06-21T06:23:55.092Z,6.03
2023-06-21T06:26:24.461Z,6.70
2023-06-21T06:28:52.275Z,5.83
2023-06-21T06:31:21.613Z,5.73
2023-06-21T06:33:48.585Z,6.70
2023-06-21T06:36:15.415Z,6.40
2023-06-21T06:38:42.328Z,6.63
2023-06-21T06:41:09.369Z,6.20
2023-06-21T06:43:36.132Z,5.55
2023-06-21T06:46:02.902Z,5.90
2023-06-21T06:48:30.171Z,5.93
2023-06-21T06:50:57.048Z,6.07
2023-06-21T06:53:23.962Z,5.97
2023-06-21T06:55:52.806Z,6.47
2023-06-21T06:58:21.011Z,7.23
2023-06-21T07:00:47.997Z,6.33
2023-06-21T07:03:15.144Z,6.70
2023-06-21T07:05:47.422Z,7.03
2023-06-21T07:08:14.738Z,6.57
2023-06-21T07:10:42.143Z,6.53
2023-06-21T07:13:08.966Z,6.20
2023-06-21T07:15:35.807Z,7.03
2023-06-21T07:18:02.749Z,6.63
2023-06-21T07:20:29.975Z,7.50
2023-06-21T07:22:58.150Z,7.63
2023-06-21T07:25:25.198Z,7.83
2023-06-21T07:27:51.974Z,8.03
2023-06-21T07:30:21.683Z,6.70
2023-06-21T07:32:49.176Z,6.87
2023-06-21T07:35:17.606Z,7.60
2023-06-21T07:37:47.271Z,6.63
2023-06-21T07:40:14.878Z,7.40
2023-06-21T07:42:42.139Z,7.53
2023-06-21T07:45:10.205Z,6.43
2023-06-21T07:47:37.257Z,6.67
2023-06-21T07:50:21.317Z,6.30
2023-06-21T07:52:49.952Z,5.10
2023-06-21T07:55:17.206Z,4.37
2023-06-21T07:57:44.901Z,4.03
2023-06-21T08:00:13.989Z,4.93
2023-06-21T08:02:42.974Z,4.27
2023-06-21T08:05:10.009Z,4.22
2023-06-21T08:07:37.094Z,4.05
2023-06-21T08:10:04.621Z,4.03
2023-06-21T08:12:31.489Z,4.47
2023-06-21T08:14:58.269Z,4.30
2023-06-21T08:17:25.065Z,4.35
2023-06-21T08:19:51.957Z,4.57
2023-06-21T08:22:19.020Z,4.03
2023-06-21T08:24:46.240Z,4.95
2023-06-21T08:27:13.116Z,4.30
2023-06-21T08:29:39.967Z,4.43
2023-06-21T08:32:07.399Z,4.53
2023-06-21T08:34:34.262Z,4.22
2023-06-21T08:37:01.500Z,4.15
2023-06-21T08:39:30.558Z,4.72
2023-06-21T08:41:59.198Z,4.35
2023-06-21T08:44:26.027Z,5.00
2023-06-21T08:46:53.027Z,4.43
2023-06-21T08:49:22.296Z,4.20
2023-06-21T08:51:49.865Z,4.57
2023-06-21T08:54:24.447Z,4.88
2023-06-21T08:57:04.581Z,6.53
2023-06-21T09:00:02.485Z,5.15
2023-06-21T09:02:51.174Z,4.68
2023-06-21T09:05:27.043Z,5.47
2023-06-21T09:07:54.486Z,5.05
2023-06-21T09:10:22.686Z,4.95
2023-06-21T09:12:51.935Z,4.28
2023-06-21T09:15:19.533Z,4.65
2023-06-21T09:17:47.805Z,5.28
2023-06-21T09:20:14.728Z,4.72
2023-06-21T09:22:42.194Z,4.70
2023-06-21T09:25:09.356Z,5.53
2023-06-21T09:27:36.162Z,4.85
2023-06-21T09:30:11.767Z,4.65
2023-06-21T09:32:50.710Z,5.03
2023-06-21T09:35:17.806Z,5.03
2023-06-21T09:37:45.913Z,4.40
2023-06-21T09:40:14.830Z,4.55
2023-06-21T09:42:42.787Z,4.57
2023-06-21T09:45:13.860Z,4.55
2023-06-21T09:47:43.908Z,5.15
2023-06-21T09:50:11.742Z,5.22
2023-06-21T09:52:43.721Z,6.10
2023-06-21T09:55:14.699Z,5.57
2023-06-21T09:57:41.510Z,5.03
2023-06-21T10:00:08.921Z,4.80
2023-06-21T10:02:40.845Z,4.78
2023-06-21T10:05:21.232Z,4.82
2023-06-21T10:07:49.150Z,5.32
2023-06-21T10:10:15.948Z,5.03
2023-06-21T10:12:55.355Z,4.45
2023-06-21T10:15:23.385Z,5.40
2023-06-21T10:18:00.037Z,5.57
2023-06-21T10:20:32.552Z,5.68
2023-06-21T10:23:02.672Z,5.35
2023-06-21T10:25:30.496Z,5.28
2023-06-21T10:28:01.230Z,5.38
2023-06-21T10:30:29.286Z,4.60
2023-06-21T10:32:59.082Z,4.28
2023-06-21T10:35:28.945Z,5.63
2023-06-21T10:38:09.149Z,5.78
2023-06-21T10:40:37.162Z,5.18
2023-06-21T10:43:04.318Z,5.78
2023-06-21T10:45:34.711Z,5.10
2023-06-21T10:48:02.028Z,4.82
2023-06-21T10:50:29.293Z,3.92
2023-06-21T10:52:58.748Z,4.78
2023-06-21T10:55:25.797Z,4.40
2023-06-21T10:57:54.585Z,4.05
2023-06-21T11:00:28.522Z,4.90
2023-06-21T11:02:56.179Z,4.53
2023-06-21T11:05:25.214Z,4.43
2023-06-21T11:07:58.025Z,4.80
2023-06-21T11:10:32.838Z,4.70
2023-06-21T11:13:00.499Z,4.63
2023-06-21T11:15:27.912Z,4.57
2023-06-21T11:18:01.957Z,4.55
2023-06-21T11:20:33.101Z,5.10
2023-06-21T11:23:02.287Z,3.67
2023-06-21T11:25:29.594Z,4.27
2023-06-21T11:28:15.684Z,4.97
2023-06-21T11:31:08.928Z,4.43
2023-06-21T11:34:06.053Z,4.90
2023-06-21T11:36:36.348Z,4.67
2023-06-21T11:39:03.181Z,5.23
2023-06-21T11:41:41.818Z,5.70
2023-06-21T11:44:10.087Z,5.23
2023-06-21T11:46:37.733Z,4.63
2023-06-21T11:49:05.192Z,4.70
2023-06-21T11:51:35.467Z,5.40
2023-06-21T11:54:02.922Z,5.10
2023-06-21T11:56:31.759Z,5.77
2023-06-21T11:58:59.612Z,4.57
2023-06-21T12:01:27.000Z,5.60
2023-06-21T12:04:00.673Z,4.40
2023-06-21T12:06:29.978Z,4.63
2023-06-21T12:08:58.687Z,5.13
2023-06-21T12:11:28.484Z,5.17
2023-06-21T12:13:55.715Z,5.07
2023-06-21T12:16:27.292Z,4.50
2023-06-21T12:18:54.134Z,5.17
2023-06-21T12:21:21.057Z,5.73
2023-06-21T12:23:47.978Z,5.87
2023-06-21T12:26:18.990Z,5.50
2023-06-21T12:28:47.846Z,5.40
2023-06-21T12:31:17.793Z,6.20
2023-06-21T12:33:45.499Z,4.27
2023-06-21T12:36:26.812Z,4.80
2023-06-21T12:39:02.810Z,5.37
2023-06-21T12:41:32.033Z,5.10
2023-06-21T12:44:04.468Z,4.70
2023-06-21T12:46:39.477Z,5.53
2023-06-21T12:49:06.588Z,5.10
2023-06-21T12:51:36.943Z,4.90
2023-06-21T12:54:09.212Z,4.30
2023-06-21T12:56:40.960Z,4.73
2023-06-21T12:59:08.603Z,5.57
2023-06-21T13:01:37.828Z,4.47
2023-06-21T13:04:09.620Z,4.93
2023-06-21T13:06:37.043Z,5.43
2023-06-21T13:09:04.755Z,4.33
2023-06-21T13:11:32.803Z,4.33
2023-06-21T13:13:59.777Z,4.10
2023-06-21T13:16:26.646Z,4.32
2023-06-21T13:18:54.999Z,4.95
2023-06-21T13:21:29.327Z,3.47
2023-06-21T13:23:58.222Z,4.35
2023-06-21T13:26:25.241Z,4.43
2023-06-21T13:28:52.332Z,4.05
2023-06-21T13:31:22.551Z,5.20
2023-06-21T13:33:50.784Z,4.38
2023-06-21T13:36:17.754Z,4.88
2023-06-21T13:38:44.705Z,4.68
2023-06-21T13:41:11.615Z,4.57
2023-06-21T13:43:38.828Z,3.85
2023-06-21T13:46:06.050Z,5.10
2023-06-21T13:48:33.117Z,4.05
2023-06-21T13:51:00.170Z,4.35
2023-06-21T13:53:28.499Z,3.72
2023-06-21T13:55:55.732Z,4.15
2023-06-21T13:58:23.527Z,3.78
2023-06-21T14:00:50.623Z,4.65
2023-06-21T14:03:17.613Z,3.85
2023-06-21T14:05:44.826Z,4.70
2023-06-21T14:08:11.636Z,4.65
2023-06-21T14:10:38.546Z,4.20
2023-06-21T14:13:05.374Z,4.15
2023-06-21T14:15:32.240Z,3.90
2023-06-21T14:18:04.394Z,4.20
2023-06-21T14:20:32.140Z,3.90
2023-06-21T14:22:59.672Z,4.03
2023-06-21T14:25:26.584Z,4.53
2023-06-21T14:27:53.471Z,4.05
2023-06-21T14:30:20.329Z,3.92
2023-06-21T14:32:48.717Z,3.67
2023-06-21T14:35:15.910Z,3.35
2023-06-21T14:37:45.274Z,3.92
2023-06-21T14:40:12.291Z,3.83
2023-06-21T14:42:39.173Z,3.72
2023-06-21T14:45:06.490Z,4.20
2023-06-21T14:47:33.782Z,4.05
2023-06-21T14:50:04.163Z,3.80
2023-06-21T14:52:32.210Z,3.53
2023-06-21T14:54:59.221Z,3.58
2023-06-21T14:57:26.077Z,3.72
2023-06-21T14:59:53.635Z,4.72
2023-06-21T15:02:20.597Z,3.88
2023-06-21T15:04:47.453Z,3.60
2023-06-21T15:07:19.481Z,3.38
2023-06-21T15:09:47.169Z,4.07
2023-06-21T15:12:14.043Z,3.88
2023-06-21T15:17:08.341Z,3.53
2023-06-21T15:19:35.322Z,3.50
2023-06-21T15:22:02.336Z,3.97
2023-06-21T15:24:29.237Z,4.13
2023-06-21T15:26:56.099Z,4.28
2023-06-21T15:29:23.101Z,3.90
2023-06-21T15:31:49.962Z,3.70
2023-06-21T15:34:17.039Z,3.60
2023-06-21T15:36:44.488Z,3.60
2023-06-21T15:39:11.350Z,3.90
2023-06-21T15:41:38.490Z,4.00
2023-06-21T15:44:06.456Z,3.75
2023-06-21T15:46:34.704Z,4.05
2023-06-21T15:49:02.083Z,4.10
2023-06-21T15:51:29.162Z,3.60
2023-06-21T15:53:57.455Z,4.20
2023-06-21T15:56:25.933Z,3.40
2023-06-21T15:58:53.293Z,3.85
2023-06-21T16:01:21.484Z,3.50
2023-06-21T16:03:49.477Z,3.63
2023-06-21T16:06:16.944Z,3.53
2023-06-21T16:08:43.989Z,3.45
2023-06-21T16:11:12.869Z,3.78
2023-06-21T16:13:47.135Z,3.30
2023-06-21T16:16:15.992Z,3.55
2023-06-21T16:18:43.001Z,3.28
2023-06-21T16:21:09.939Z,3.42
2023-06-21T16:23:36.938Z,3.47
2023-06-21T16:26:03.979Z,3.58
2023-06-21T16:28:31.505Z,3.28
2023-06-21T16:30:58.556Z,3.60
2023-06-21T16:33:25.458Z,3.75
2023-06-21T16:35:52.418Z,3.80
2023-06-21T16:38:20.348Z,3.42
2023-06-21T16:40:47.622Z,3.42
2023-06-21T16:43:18.114Z,3.55
2023-06-21T16:45:45.412Z,3.28
2023-06-21T16:48:12.482Z,3.53
2023-06-21T16:50:39.658Z,3.47
2023-06-21T16:53:06.556Z,3.30
2023-06-21T16:55:33.553Z,3.47
2023-06-21T16:58:00.677Z,4.43
2023-06-21T17:00:28.597Z,3.90
2023-06-21T17:02:56.962Z,3.88
2023-06-21T17:05:24.588Z,3.50
2023-06-21T17:07:52.380Z,3.70
2023-06-21T17:10:20.592Z,4.22
2023-06-21T17:12:47.828Z,3.75
2023-06-21T17:15:15.017Z,3.72
2023-06-21T17:17:43.249Z,3.58
2023-06-21T17:20:10.725Z,4.10
2023-06-21T17:22:37.762Z,3.97
2023-06-21T17:25:05.520Z,3.40
2023-06-21T17:27:32.382Z,3.20
2023-06-21T17:29:59.571Z,3.50
2023-06-21T17:32:26.888Z,4.15
2023-06-21T17:34:54.249Z,3.22
2023-06-21T17:37:21.071Z,3.97
2023-06-21T17:39:48.948Z,3.58
2023-06-21T17:42:16.463Z,3.47
2023-06-21T17:44:43.583Z,4.28
2023-06-21T17:47:11.693Z,3.95
2023-06-21T17:49:38.803Z,3.70
2023-06-21T17:52:06.170Z,4.03
2023-06-21T17:54:33.899Z,4.00
2023-06-21T17:57:01.235Z,4.30
2023-06-21T17:59:28.216Z,4.20
2023-06-21T18:01:56.270Z,4.05
2023-06-21T18:04:23.473Z,3.78
2023-06-21T18:06:50.628Z,3.90
2023-06-21T18:09:17.639Z,4.20
2023-06-21T18:11:44.973Z,3.90
2023-06-21T18:14:12.019Z,4.15
2023-06-21T18:16:39.941Z,4.20
2023-06-21T18:19:06.836Z,3.92
2023-06-21T18:21:33.824Z,3.90
2023-06-21T18:24:09.083Z,3.78
2023-06-21T18:26:36.297Z,3.90
2023-06-21T18:29:03.433Z,3.80
2023-06-21T18:31:30.280Z,4.07
2023-06-21T18:33:57.110Z,4.05
2023-06-21T18:36:24.116Z,4.50
2023-06-21T18:38:50.947Z,4.00
2023-06-21T18:41:17.805Z,4.20
2023-06-21T18:43:47.698Z,3.95
2023-06-21T18:46:14.525Z,3.95
2023-06-21T18:48:41.704Z,4.03
2023-06-21T18:51:08.998Z,3.80
2023-06-21T18:53:35.840Z,4.20
2023-06-21T18:56:02.807Z,4.18
2023-06-21T18:58:29.669Z,4.40
2023-06-21T19:00:56.560Z,4.15
2023-06-21T19:03:23.540Z,4.18
2023-06-21T19:05:50.430Z,3.83
2023-06-21T19:08:17.282Z,3.92
2023-06-21T19:10:44.102Z,3.85
2023-06-21T19:13:12.028Z,4.00
2023-06-21T19:15:38.886Z,3.58
2023-06-21T19:18:05.826Z,4.05
2023-06-21T19:20:32.664Z,4.10
2023-06-21T19:22:59.495Z,4.22
2023-06-21T19:25:26.336Z,4.00
2023-06-21T19:27:53.149Z,3.58
2023-06-21T19:30:20.183Z,4.80
2023-06-21T19:32:47.055Z,4.90
2023-06-21T19:35:20.500Z,4.40
2023-06-21T19:37:47.673Z,4.53
2023-06-21T19:40:15.046Z,4.70
2023-06-21T19:42:46.099Z,4.32
2023-06-21T19:45:13.939Z,4.70
2023-06-21T19:47:41.267Z,4.85
2023-06-21T19:50:10.156Z,4.88
2023-06-21T19:52:37.584Z,4.88
2023-06-21T19:55:04.920Z,4.55
2023-06-21T19:57:32.323Z,4.88
2023-06-21T19:59:59.682Z,4.60
2023-06-21T20:02:27.027Z,4.38
2023-06-21T20:04:57.813Z,4.72
2023-06-21T20:07:25.122Z,4.57
2023-06-21T20:09:52.782Z,4.55
2023-06-21T20:12:20.135Z,5.32
2023-06-21T20:14:46.947Z,4.35
2023-06-21T20:17:13.757Z,4.70
2023-06-21T20:19:40.622Z,4.60
2023-06-21T20:22:07.759Z,4.90
2023-06-21T20:24:34.724Z,4.15
2023-06-21T20:27:01.541Z,5.03
2023-06-21T20:29:28.380Z,4.50
2023-06-21T20:31:55.481Z,4.88
2023-06-21T20:34:22.393Z,4.68
2023-06-21T20:36:49.995Z,5.00
2023-06-21T20:39:18.547Z,4.47
2023-06-21T20:41:46.864Z,4.68
2023-06-21T20:44:15.707Z,4.68
2023-06-21T20:46:44.228Z,4.53
2023-06-21T20:49:11.730Z,3.95
2023-06-21T20:51:39.168Z,4.60
2023-06-21T20:54:13.025Z,5.13
2023-06-21T20:56:40.764Z,4.80
2023-06-21T20:59:08.250Z,4.72
2023-06-21T21:01:39.909Z,4.80
2023-06-21T21:04:08.691Z,4.47
2023-06-21T21:06:36.572Z,4.57
2023-06-21T21:09:03.949Z,4.15
2023-06-21T21:11:30.859Z,4.47
2023-06-21T21:13:57.808Z,5.07
2023-06-21T21:16:24.610Z,5.07
2023-06-21T21:18:51.635Z,4.60
2023-06-21T21:21:18.510Z,4.80
2023-06-21T21:23:45.332Z,5.55
2023-06-21T21:26:12.115Z,5.22
2023-06-21T21:28:38.940Z,5.15
2023-06-21T21:31:06.162Z,5.15
2023-06-21T21:33:33.245Z,5.03
2023-06-21T21:36:00.229Z,5.63
2023-06-21T21:38:27.085Z,5.03
2023-06-21T21:40:55.800Z,5.10
2023-06-21T21:43:22.658Z,5.13
2023-06-21T21:45:50.118Z,5.50
2023-06-21T21:48:16.933Z,4.95
2023-06-21T21:50:45.624Z,5.53
2023-06-21T21:53:15.278Z,5.82
2023-06-21T21:55:42.835Z,5.43
2023-06-21T21:58:11.228Z,5.90
2023-06-21T22:00:38.102Z,5.82
2023-06-21T22:03:05.144Z,6.20
2023-06-21T22:05:32.058Z,5.75
2023-06-21T22:07:58.828Z,6.30
2023-06-21T22:10:37.696Z,5.93
2023-06-21T22:13:05.822Z,5.32
2023-06-21T22:15:32.589Z,6.13
2023-06-21T22:17:59.447Z,5.90
2023-06-21T22:20:26.449Z,6.50
2023-06-21T22:22:53.422Z,6.03
2023-06-21T22:25:20.367Z,6.05
2023-06-21T22:27:47.208Z,6.13
2023-06-21T22:30:14.046Z,6.18
2023-06-21T22:32:40.846Z,5.65
2023-06-21T22:35:08.000Z,5.78
2023-06-21T22:37:37.408Z,5.45
2023-06-21T22:40:06.354Z,5.93
2023-06-21T22:42:33.325Z,6.45
2023-06-21T22:45:00.396Z,5.88
2023-06-21T22:47:27.274Z,6.30
2023-06-21T22:49:57.013Z,5.70
2023-06-21T22:52:24.901Z,6.60
2023-06-21T22:54:51.730Z,6.70
2023-06-21T22:57:18.873Z,6.00
2023-06-21T22:59:45.667Z,6.40
2023-06-21T23:02:12.948Z,7.07
2023-06-21T23:04:39.999Z,6.47
2023-06-21T23:07:07.609Z,6.18
2023-06-21T23:09:34.442Z,6.30
2023-06-21T23:12:01.250Z,6.55
2023-06-21T23:14:29.302Z,6.30
2023-06-21T23:16:56.156Z,6.17
2023-06-21T23:19:23.039Z,6.28
2023-06-21T23:21:49.788Z,6.55
2023-06-21T23:24:16.634Z,6.07
2023-06-21T23:26:43.427Z,6.15
2023-06-21T23:29:12.569Z,6.28
2023-06-21T23:31:40.122Z,5.90
2023-06-21T23:34:07.157Z,6.53
2023-06-21T23:36:34.875Z,5.85
2023-06-21T23:39:02.277Z,6.10
2023-06-21T23:41:32.125Z,6.95
2023-06-21T23:44:00.221Z,6.20
2023-06-21T23:46:33.072Z,7.23
2023-06-21T23:49:02.573Z,6.68
2023-06-21T23:51:33.370Z,6.45
2023-06-21T23:54:00.375Z,6.50
2023-06-21T23:56:27.997Z,6.82
2023-06-21T23:58:55.385Z,6.40
